Terminal Aerodrome Forecast
Issued by NWS

Home | Current Version | Previous Version | Text Only | Print | Product List | Glossary On
Versions: 1 2 3 4 5 6 7 8 9 10 11 12
000
FTUS45 KRIW 192300
TAFCOD
TAF
KCOD 192320Z 2000/2024 24010KT P6SM SCT110 BKN200
     FM201200 VRB06KT P6SM BKN100
     FM201700 23012G18KT P6SM SCT050 BKN100
      AMD LTD TO CLD VIS AND WIND=

USA.gov is the U.S. government's official web portal to all federal, state and local government web resources and services.